Time;durP1;ratioP1;P1;durP2;ratioP2;P2;SDS_P1;SDS_P2;PMS_P1;PMS_P2;Temp;Humidity;BMP_temperature;BMP_pressure;BME280_temperature;BME280_humidity;BME280_pressure;Samples;Min_cycle;Max_cycle;Signal;HPM_P1;HPM_P2
2023/12/05 02:28:49;;;;;;;25.77;13.27;;;-0.30;99.90;;;;;;6150322;23;20454;-67
2023/12/05 02:31:17;;;;;;;18.30;9.60;;;-0.20;99.90;;;;;;6171078;23;20380;-69
2023/12/05 02:33:46;;;;;;;20.53;11.47;;;-0.20;99.90;;;;;;6171425;23;20437;-67
2023/12/05 02:36:41;;;;;;;26.57;10.80;;;-0.20;99.90;;;;;;6170419;23;20382;-67
2023/12/05 02:39:27;;;;;;;19.40;11.80;;;-0.30;99.90;;;;;;6169240;23;20422;-68
2023/12/05 02:42:43;;;;;;;28.57;13.30;;;-0.30;99.90;;;;;;6169105;23;20544;-67
2023/12/05 02:45:17;;;;;;;23.30;12.30;;;-0.30;99.90;;;;;;6169590;23;20432;-68
2023/12/05 02:47:49;;;;;;;24.73;12.20;;;-0.30;99.90;;;;;;6135945;23;20433;-67
2023/12/05 02:50:17;;;;;;;18.10;10.93;;;-0.30;99.90;;;;;;6169251;23;20398;-68
2023/12/05 02:52:44;;;;;;;32.20;12.30;;;-0.30;99.90;;;;;;6166237;23;20477;-67
2023/12/05 02:55:43;;;;;;;24.57;13.33;;;-0.20;99.90;;;;;;6167434;23;20433;-67
2023/12/05 02:58:11;;;;;;;27.30;13.00;;;-0.20;99.90;;;;;;6166636;23;20453;-69
2023/12/05 03:00:39;;;;;;;27.83;10.73;;;-0.30;99.90;;;;;;6167497;23;20422;-68
2023/12/05 03:03:56;;;;;;;26.60;11.40;;;-0.30;99.90;;;;;;6166550;23;20445;-68
2023/12/05 03:06:39;;;;;;;23.33;10.83;;;-0.30;99.90;;;;;;6167264;23;20422;-68
2023/12/05 03:09:06;;;;;;;16.67;11.30;;;-0.30;99.90;;;;;;6167625;23;20422;-68
2023/12/05 03:11:33;;;;;;;25.93;13.07;;;-0.30;99.90;;;;;;6167877;23;20375;-67
2023/12/05 03:14:28;;;;;;;24.53;14.50;;;-0.30;99.90;;;;;;6168750;23;20468;-67
2023/12/05 03:16:56;;;;;;;32.87;13.30;;;-0.20;99.90;;;;;;6167433;23;20844;-68
2023/12/05 03:19:23;;;;;;;18.70;10.20;;;-0.20;99.90;;;;;;6166633;23;20911;-68
2023/12/05 03:25:12;;;;;;;21.60;11.10;;;-0.20;99.90;;;;;;6167604;23;20377;-66
2023/12/05 03:34:37;;;;;;;29.63;12.87;;;-0.20;99.90;;;;;;6194217;23;20951;-67
2023/12/05 03:40:26;;;;;;;24.03;10.33;;;-0.20;99.90;;;;;;6201139;23;20401;-68
2023/12/05 03:43:08;;;;;;;19.07;11.47;;;-0.20;99.90;;;;;;6198372;23;20432;-67
2023/12/05 03:45:35;;;;;;;23.23;11.60;;;-0.10;99.90;;;;;;6197409;23;20376;-68
2023/12/05 03:50:54;;;;;;;29.13;11.37;;;-0.20;99.90;;;;;;6202029;23;20452;-67
2023/12/05 03:53:21;;;;;;;26.83;12.30;;;-0.20;99.90;;;;;;6212095;23;20420;-68
2023/12/05 03:55:47;;;;;;;19.83;10.47;;;-0.20;99.90;;;;;;6211562;23;20432;-69
2023/12/05 03:58:14;;;;;;;18.07;11.07;;;-0.20;99.90;;;;;;6212682;23;20420;-66
2023/12/05 04:00:41;;;;;;;20.90;10.33;;;-0.10;99.90;;;;;;6211305;23;20400;-65
2023/12/05 04:03:08;;;;;;;18.03;9.40;;;-0.10;99.90;;;;;;6211564;23;20452;-66
2023/12/05 04:05:35;;;;;;;20.77;11.47;;;-0.10;99.90;;;;;;6211896;23;20400;-68
2023/12/05 04:08:04;;;;;;;29.90;11.97;;;-0.10;99.90;;;;;;6211029;23;20436;-67
2023/12/05 04:10:31;;;;;;;18.13;10.00;;;0.00;99.90;;;;;;6211490;23;20416;-67
2023/12/05 04:12:58;;;;;;;20.27;11.63;;;0.00;99.90;;;;;;6211275;23;20405;-66
2023/12/05 04:15:25;;;;;;;29.10;12.43;;;0.00;99.90;;;;;;6211975;23;20369;-67
2023/12/05 04:17:52;;;;;;;24.53;13.77;;;0.00;99.90;;;;;;6211612;23;20416;-68
2023/12/05 04:20:19;;;;;;;25.37;13.20;;;0.10;99.90;;;;;;6211419;23;20425;-67
2023/12/05 04:22:46;;;;;;;17.17;9.90;;;0.10;99.90;;;;;;6211335;23;20432;-68
2023/12/05 04:25:15;;;;;;;26.97;13.27;;;0.10;99.90;;;;;;6210823;23;20428;-66
2023/12/05 04:27:42;;;;;;;31.17;13.60;;;0.10;99.90;;;;;;6211405;23;20417;-63
2023/12/05 04:30:10;;;;;;;23.73;12.53;;;0.10;99.90;;;;;;6211743;23;20404;-68
2023/12/05 04:32:37;;;;;;;19.83;12.57;;;0.10;99.90;;;;;;6211979;23;20413;-66
2023/12/05 04:35:05;;;;;;;26.60;15.73;;;0.20;99.90;;;;;;6211518;23;20428;-68
2023/12/05 04:37:31;;;;;;;24.23;15.27;;;0.10;99.90;;;;;;6210001;23;20405;-67
2023/12/05 04:39:58;;;;;;;18.20;12.90;;;0.10;99.90;;;;;;6210635;23;20392;-71
2023/12/05 04:42:26;;;;;;;34.13;14.20;;;0.10;99.90;;;;;;6210974;23;20424;-67
2023/12/05 04:44:53;;;;;;;26.60;12.60;;;0.10;99.90;;;;;;6211303;23;20429;-68
2023/12/05 04:47:20;;;;;;;26.70;13.93;;;0.10;99.90;;;;;;6210713;23;20404;-67
2023/12/05 04:49:47;;;;;;;19.83;10.03;;;0.10;99.90;;;;;;6210546;23;20563;-65
2023/12/05 04:52:14;;;;;;;21.93;10.97;;;0.10;99.90;;;;;;6211537;23;20377;-66
2023/12/05 04:54:41;;;;;;;25.70;13.27;;;0.10;99.90;;;;;;6212266;23;20413;-63
2023/12/05 04:57:08;;;;;;;26.53;14.50;;;0.10;99.90;;;;;;6212072;23;20435;-64
2023/12/05 04:59:39;;;;;;;28.03;12.87;;;0.10;99.90;;;;;;6212862;23;20389;-68
2023/12/05 05:02:05;;;;;;;26.00;13.07;;;0.10;99.90;;;;;;6212147;23;20425;-66
2023/12/05 05:04:32;;;;;;;27.70;12.37;;;0.10;99.90;;;;;;6212013;23;20376;-63
2023/12/05 05:06:59;;;;;;;21.20;13.43;;;0.10;99.90;;;;;;6211033;23;20421;-67
2023/12/05 05:09:26;;;;;;;19.70;12.77;;;0.00;99.90;;;;;;6210644;23;20429;-66
2023/12/05 05:11:53;;;;;;;23.30;13.70;;;0.00;99.90;;;;;;6211190;23;20396;-68
2023/12/05 05:14:20;;;;;;;20.10;10.60;;;0.00;99.90;;;;;;6210568;23;20429;-69
2023/12/05 05:16:48;;;;;;;30.30;13.87;;;0.00;99.90;;;;;;6210939;23;20420;-67
2023/12/05 05:19:17;;;;;;;23.90;11.03;;;0.00;99.90;;;;;;6211563;23;20393;-67
2023/12/05 05:21:46;;;;;;;15.90;9.77;;;0.00;99.90;;;;;;6213103;23;20460;-66
2023/12/05 05:24:12;;;;;;;24.33;13.17;;;0.00;99.90;;;;;;6212891;23;20419;-66
2023/12/05 05:26:39;;;;;;;27.03;11.47;;;0.00;99.90;;;;;;6212092;23;20377;-67
2023/12/05 05:29:06;;;;;;;32.70;14.10;;;0.00;99.90;;;;;;6211480;23;20388;-68
2023/12/05 05:31:33;;;;;;;24.17;12.67;;;0.00;99.90;;;;;;6211017;23;20448;-67
2023/12/05 05:34:02;;;;;;;29.90;13.83;;;0.10;99.90;;;;;;6211163;23;20404;-69
2023/12/05 05:36:28;;;;;;;30.00;15.60;;;0.10;99.90;;;;;;6209630;23;20456;-67
2023/12/05 05:38:55;;;;;;;26.20;12.80;;;0.10;99.90;;;;;;6211125;23;20440;-66
2023/12/05 05:41:22;;;;;;;28.37;12.70;;;0.10;99.90;;;;;;6191557;23;20404;-68
2023/12/05 05:43:49;;;;;;;18.20;9.67;;;0.20;99.90;;;;;;6186780;23;20802;-69
2023/12/05 05:46:16;;;;;;;28.50;13.87;;;0.20;99.90;;;;;;6186804;23;20401;-69
2023/12/05 05:48:43;;;;;;;24.10;11.03;;;0.20;99.90;;;;;;6187907;23;20954;-70
2023/12/05 05:51:11;;;;;;;31.00;13.07;;;0.30;99.90;;;;;;6188042;23;20859;-69
2023/12/05 05:53:38;;;;;;;20.80;11.50;;;0.40;99.90;;;;;;6188492;23;20786;-68
2023/12/05 05:56:06;;;;;;;21.50;11.23;;;0.40;99.90;;;;;;6188230;23;20496;-69
2023/12/05 05:58:33;;;;;;;25.03;12.83;;;0.40;99.90;;;;;;6188110;23;20935;-66
2023/12/05 06:01:00;;;;;;;23.13;13.20;;;0.40;99.90;;;;;;6188211;23;20389;-68
2023/12/05 06:03:28;;;;;;;23.03;11.53;;;0.40;99.90;;;;;;6188341;23;20445;-70
2023/12/05 06:05:55;;;;;;;32.70;14.20;;;0.40;99.90;;;;;;6188433;23;20408;-68
2023/12/05 06:08:23;;;;;;;24.20;13.00;;;0.40;99.90;;;;;;6188472;23;20919;-68
2023/12/05 06:10:50;;;;;;;27.20;14.50;;;0.40;99.90;;;;;;6188317;23;20460;-68
2023/12/05 06:13:17;;;;;;;23.73;12.50;;;0.40;99.90;;;;;;6188493;23;20439;-70
2023/12/05 06:15:43;;;;;;;27.33;11.67;;;0.50;99.90;;;;;;6188112;23;20491;-68
2023/12/05 06:18:11;;;;;;;19.30;12.30;;;0.50;99.90;;;;;;6188330;23;20401;-67
2023/12/05 06:20:38;;;;;;;23.53;12.07;;;0.50;99.90;;;;;;6188323;23;20751;-69
2023/12/05 06:23:05;;;;;;;24.83;13.20;;;0.90;99.90;;;;;;6188303;23;20858;-71
2023/12/05 06:25:33;;;;;;;24.00;12.37;;;0.50;99.90;;;;;;6188345;23;20437;-69
2023/12/05 06:28:00;;;;;;;22.60;10.27;;;0.40;99.90;;;;;;6187720;23;20930;-69
2023/12/05 06:30:27;;;;;;;24.30;11.53;;;0.40;99.90;;;;;;6188307;23;20401;-68
2023/12/05 06:32:54;;;;;;;30.17;12.80;;;0.40;99.90;;;;;;6188154;23;20495;-68
2023/12/05 06:35:21;;;;;;;27.17;11.37;;;0.40;99.90;;;;;;6188214;23;20464;-68
2023/12/05 06:37:47;;;;;;;30.43;13.07;;;0.40;99.90;;;;;;6187752;23;20463;-68
2023/12/05 06:40:14;;;;;;;24.03;12.87;;;0.50;99.90;;;;;;6188191;23;20386;-67
2023/12/05 06:42:43;;;;;;;23.13;11.60;;;0.50;99.90;;;;;;6187622;23;20522;-69
2023/12/05 06:45:11;;;;;;;23.47;12.03;;;0.50;99.90;;;;;;6187789;23;20405;-70
2023/12/05 06:47:38;;;;;;;20.30;12.47;;;0.50;99.90;;;;;;6188092;23;20408;-68
2023/12/05 06:50:10;;;;;;;27.30;13.73;;;0.50;99.90;;;;;;6187743;23;20766;-69
2023/12/05 06:52:37;;;;;;;40.10;14.10;;;0.50;99.90;;;;;;6187774;23;20726;-70
2023/12/05 06:55:06;;;;;;;29.33;15.00;;;0.50;99.90;;;;;;6188001;23;20452;-70
2023/12/05 06:57:33;;;;;;;23.50;12.60;;;0.50;99.90;;;;;;6187938;23;20428;-68
2023/12/05 07:00:02;;;;;;;20.43;11.00;;;0.50;99.90;;;;;;6187594;23;20471;-69
2023/12/05 07:02:29;;;;;;;21.97;13.80;;;0.70;99.90;;;;;;6187573;23;20940;-70
2023/12/05 07:04:57;;;;;;;22.90;13.03;;;0.60;99.90;;;;;;6188087;23;20730;-70
2023/12/05 07:07:24;;;;;;;25.17;14.13;;;0.60;99.90;;;;;;6187942;23;20405;-68
2023/12/05 07:09:51;;;;;;;18.37;11.70;;;0.60;99.90;;;;;;6187904;23;20405;-69
2023/12/05 07:12:19;;;;;;;36.40;14.10;;;0.60;99.90;;;;;;6187261;23;20424;-69
2023/12/05 07:14:45;;;;;;;26.67;12.80;;;0.60;99.90;;;;;;6188145;23;20409;-68
2023/12/05 07:17:14;;;;;;;29.80;12.70;;;0.60;99.90;;;;;;6187651;23;20508;-68
2023/12/05 07:19:41;;;;;;;22.77;12.07;;;0.60;99.90;;;;;;6187691;23;20424;-69
2023/12/05 07:22:08;;;;;;;29.00;13.20;;;0.50;99.90;;;;;;6187188;23;20898;-68
2023/12/05 07:24:34;;;;;;;30.07;13.57;;;0.50;99.90;;;;;;6187507;23;20401;-69
2023/12/05 07:27:02;;;;;;;20.70;14.40;;;0.50;99.90;;;;;;6187189;23;20447;-66
2023/12/05 07:29:34;;;;;;;28.50;13.17;;;0.40;99.90;;;;;;6187397;23;20421;-68
2023/12/05 07:32:03;;;;;;;25.70;14.10;;;0.40;99.90;;;;;;6187184;23;20828;-69
2023/12/05 07:34:50;;;;;;;20.20;12.40;;;0.40;99.90;;;;;;6187560;23;20948;-70
2023/12/05 07:37:17;;;;;;;21.50;9.83;;;0.50;99.90;;;;;;6187565;23;20397;-67
2023/12/05 07:39:44;;;;;;;15.83;11.30;;;0.50;99.90;;;;;;6187340;23;20474;-67
2023/12/05 07:42:11;;;;;;;27.90;13.47;;;0.50;99.90;;;;;;6187521;23;20428;-67
2023/12/05 07:44:38;;;;;;;27.00;10.47;;;0.40;99.90;;;;;;6187222;23;20497;-68
2023/12/05 07:47:07;;;;;;;23.97;12.07;;;0.50;99.90;;;;;;6187626;23;20416;-67
2023/12/05 07:49:35;;;;;;;25.10;11.57;;;0.50;99.90;;;;;;6187386;23;20416;-70
2023/12/05 07:52:04;;;;;;;27.03;13.50;;;0.50;99.90;;;;;;6187360;23;20428;-68
2023/12/05 07:54:31;;;;;;;27.90;14.07;;;0.60;99.90;;;;;;6186879;23;20487;-67
2023/12/05 07:56:58;;;;;;;23.80;12.40;;;0.60;99.90;;;;;;6187628;23;20409;-68
2023/12/05 07:59:25;;;;;;;27.07;13.70;;;0.60;99.90;;;;;;6187331;23;20452;-68
2023/12/05 08:01:51;;;;;;;30.40;14.73;;;0.70;99.90;;;;;;6187360;23;20479;-67
2023/12/05 08:04:18;;;;;;;26.10;13.80;;;0.70;99.90;;;;;;6186609;23;20994;-70
2023/12/05 08:06:46;;;;;;;27.57;14.17;;;0.80;99.90;;;;;;6186693;23;20880;-69
2023/12/05 08:09:13;;;;;;;23.80;12.93;;;0.70;99.90;;;;;;6187222;23;20479;-70
2023/12/05 08:11:40;;;;;;;23.93;14.23;;;0.70;99.90;;;;;;6187115;23;20428;-69
2023/12/05 08:14:07;;;;;;;26.60;12.80;;;0.70;99.90;;;;;;6187294;23;20421;-70
2023/12/05 08:16:34;;;;;;;24.67;13.57;;;0.70;99.90;;;;;;6186897;23;20376;-69
2023/12/05 08:19:01;;;;;;;33.13;14.97;;;0.70;99.90;;;;;;6186988;23;20425;-68
2023/12/05 08:21:28;;;;;;;24.63;14.73;;;0.80;99.90;;;;;;6187088;23;20421;-66
2023/12/05 08:23:56;;;;;;;24.97;14.27;;;0.80;99.90;;;;;;6187241;23;20451;-68
2023/12/05 08:26:23;;;;;;;30.77;16.50;;;0.90;99.90;;;;;;6187154;23;20425;-69
2023/12/05 08:28:50;;;;;;;21.57;13.60;;;0.90;99.90;;;;;;6187140;23;20868;-67
2023/12/05 08:31:17;;;;;;;23.97;13.47;;;0.90;99.90;;;;;;6187337;23;20401;-68
2023/12/05 08:33:44;;;;;;;29.57;14.43;;;0.90;99.90;;;;;;6186652;23;20401;-67
2023/12/05 08:36:11;;;;;;;25.57;13.67;;;0.90;99.90;;;;;;6187011;23;20467;-67
2023/12/05 08:38:38;;;;;;;26.67;14.20;;;0.90;99.90;;;;;;6186728;23;20484;-67
2023/12/05 08:41:07;;;;;;;28.07;14.00;;;1.00;99.90;;;;;;6186636;23;20456;-66
2023/12/05 08:43:34;;;;;;;22.10;11.70;;;1.00;99.90;;;;;;6186992;23;20450;-68
2023/12/05 08:46:02;;;;;;;21.40;12.27;;;1.00;99.90;;;;;;6186537;23;20425;-67
2023/12/05 08:48:29;;;;;;;20.80;11.60;;;1.20;99.90;;;;;;6186629;23;20471;-67
2023/12/05 08:50:56;;;;;;;25.03;12.73;;;1.10;99.90;;;;;;6186546;23;20463;-68
2023/12/05 08:53:23;;;;;;;33.10;15.00;;;1.10;99.90;;;;;;6187070;23;20723;-68
2023/12/05 08:55:50;;;;;;;21.70;10.73;;;1.10;99.90;;;;;;6186928;23;20428;-69
2023/12/05 08:58:18;;;;;;;26.60;12.43;;;1.10;99.90;;;;;;6186959;23;20926;-69
2023/12/05 09:00:45;;;;;;;23.53;11.97;;;1.00;99.90;;;;;;6186486;23;20417;-67
2023/12/05 09:03:12;;;;;;;26.10;14.60;;;1.20;99.90;;;;;;6186805;23;20452;-69
2023/12/05 09:05:39;;;;;;;26.40;13.97;;;1.10;99.90;;;;;;6186996;23;20405;-68
2023/12/05 09:08:06;;;;;;;27.70;14.20;;;1.10;99.90;;;;;;6203245;23;20428;-66
2023/12/05 09:10:33;;;;;;;26.37;14.43;;;1.10;99.90;;;;;;6210363;23;20421;-66
2023/12/05 09:13:00;;;;;;;34.37;14.30;;;1.10;99.90;;;;;;6211117;23;20409;-64
2023/12/05 09:15:28;;;;;;;20.47;10.83;;;1.20;99.90;;;;;;6211330;23;20405;-65
2023/12/05 09:25:41;;;;;;;21.53;12.50;;;1.40;99.90;;;;;;6183122;23;20647;-61
2023/12/05 09:28:08;;;;;;;26.83;12.23;;;1.50;99.90;;;;;;6214735;23;20400;-61
2023/12/05 09:30:36;;;;;;;24.57;12.60;;;1.60;99.90;;;;;;6214456;23;20392;-64
2023/12/05 09:33:04;;;;;;;25.60;15.73;;;1.60;99.90;;;;;;6214076;23;20855;-65
2023/12/05 09:35:33;;;;;;;24.60;12.70;;;1.70;99.90;;;;;;6213880;23;20405;-62
2023/12/05 09:38:00;;;;;;;25.87;13.23;;;1.80;99.90;;;;;;6214215;23;20428;-65
2023/12/05 09:40:31;;;;;;;26.60;13.33;;;1.80;99.90;;;;;;6213815;23;20400;-63
2023/12/05 09:43:02;;;;;;;34.83;14.90;;;1.80;99.90;;;;;;6213884;23;20447;-64
2023/12/05 09:45:36;;;;;;;23.33;11.80;;;1.80;99.90;;;;;;6212838;23;20416;-64
2023/12/05 09:48:08;;;;;;;25.20;11.80;;;1.80;99.90;;;;;;6212218;23;20447;-67
2023/12/05 09:50:36;;;;;;;26.33;14.77;;;1.70;99.90;;;;;;6213021;23;20487;-64
2023/12/05 09:53:05;;;;;;;27.50;12.80;;;1.80;99.90;;;;;;6213105;23;20405;-66
2023/12/05 09:55:32;;;;;;;25.73;14.67;;;1.90;99.90;;;;;;6213714;23;20407;-66
2023/12/05 09:58:00;;;;;;;23.63;12.87;;;1.90;99.90;;;;;;6213384;23;20405;-63
2023/12/05 10:00:28;;;;;;;26.63;14.50;;;1.90;99.90;;;;;;6213251;23;20428;-67
2023/12/05 10:02:57;;;;;;;20.03;10.50;;;1.90;99.90;;;;;;6213254;23;20428;-64
2023/12/05 10:05:29;;;;;;;18.83;10.73;;;1.90;99.90;;;;;;6213380;23;20415;-66
2023/12/05 10:07:57;;;;;;;26.67;14.80;;;1.90;99.90;;;;;;6213887;23;20381;-66
2023/12/05 10:10:24;;;;;;;27.90;15.77;;;1.90;99.90;;;;;;6213466;23;20425;-65
2023/12/05 10:12:54;;;;;;;20.03;12.23;;;1.90;99.90;;;;;;6213888;23;20416;-65
2023/12/05 10:15:24;;;;;;;20.50;12.57;;;1.90;99.90;;;;;;6213671;23;20373;-66
2023/12/05 10:17:52;;;;;;;23.23;12.13;;;2.00;99.90;;;;;;6212616;23;20389;-64
2023/12/05 10:20:19;;;;;;;23.47;13.30;;;2.00;99.90;;;;;;6213527;23;20405;-64
2023/12/05 10:22:47;;;;;;;24.50;13.93;;;2.00;99.90;;;;;;6213820;23;20429;-65
2023/12/05 10:25:15;;;;;;;19.93;12.73;;;2.10;99.90;;;;;;6213679;23;20409;-64
2023/12/05 10:27:42;;;;;;;19.50;13.30;;;2.10;99.90;;;;;;6213688;23;20435;-65
2023/12/05 10:30:11;;;;;;;29.80;15.43;;;2.10;99.90;;;;;;6213832;23;20365;-66
2023/12/05 10:32:38;;;;;;;22.50;12.87;;;2.10;99.90;;;;;;6213532;23;20396;-64
2023/12/05 10:35:08;;;;;;;18.13;11.70;;;2.00;99.90;;;;;;6213304;23;20392;-66
2023/12/05 10:37:34;;;;;;;21.40;13.30;;;2.00;99.90;;;;;;6213427;23;20436;-65
2023/12/05 10:40:04;;;;;;;22.23;12.30;;;2.10;99.90;;;;;;6212493;23;20524;-65
2023/12/05 10:42:32;;;;;;;19.93;12.17;;;2.10;99.90;;;;;;6212742;23;20397;-67
2023/12/05 10:45:05;;;;;;;20.53;13.43;;;2.20;99.90;;;;;;6213338;23;20445;-64
2023/12/05 10:47:34;;;;;;;29.70;13.47;;;2.20;99.90;;;;;;6213656;23;20385;-66
2023/12/05 10:50:05;;;;;;;21.30;13.00;;;2.20;99.90;;;;;;6212569;23;20437;-65
2023/12/05 10:52:35;;;;;;;28.70;13.50;;;2.20;99.90;;;;;;6213083;23;20401;-66
2023/12/05 10:55:04;;;;;;;27.17;12.97;;;2.20;99.90;;;;;;6212054;23;20397;-66
2023/12/05 10:57:33;;;;;;;25.17;12.53;;;2.20;99.90;;;;;;6210144;23;20444;-66
2023/12/05 11:00:05;;;;;;;22.53;12.77;;;2.30;99.90;;;;;;6211470;23;20464;-67
2023/12/05 11:02:33;;;;;;;22.83;12.40;;;2.20;99.90;;;;;;6211870;23;20440;-63
2023/12/05 11:05:09;;;;;;;20.17;11.10;;;2.20;99.90;;;;;;6210874;23;20441;-65
2023/12/05 11:07:39;;;;;;;17.83;10.40;;;2.20;99.90;;;;;;6211298;23;20385;-65
2023/12/05 11:10:08;;;;;;;26.43;12.80;;;2.20;99.90;;;;;;6211476;23;20385;-65
2023/12/05 11:12:40;;;;;;;23.70;13.00;;;2.30;99.90;;;;;;6210964;23;20440;-66
2023/12/05 11:15:10;;;;;;;22.10;12.87;;;2.30;99.90;;;;;;6211276;23;20434;-67
2023/12/05 11:17:42;;;;;;;28.47;13.73;;;2.40;99.90;;;;;;6211239;23;20411;-66
2023/12/05 11:20:25;;;;;;;24.53;12.03;;;2.50;99.90;;;;;;6210861;23;20428;-66
2023/12/05 11:23:05;;;;;;;16.40;9.77;;;2.60;99.90;;;;;;6210751;23;20401;-65
2023/12/05 11:25:47;;;;;;;22.77;11.57;;;2.60;99.90;;;;;;6208272;23;20409;-65
2023/12/05 11:28:30;;;;;;;18.87;10.83;;;2.60;99.90;;;;;;6211233;23;20389;-65
2023/12/05 11:31:06;;;;;;;14.37;10.77;;;2.70;99.90;;;;;;6210976;23;20405;-66
2023/12/05 11:33:51;;;;;;;17.13;10.93;;;2.70;99.90;;;;;;6210962;23;20424;-64
2023/12/05 11:36:29;;;;;;;18.70;11.87;;;2.70;99.90;;;;;;6211253;23;20392;-66
2023/12/05 11:38:57;;;;;;;21.07;11.60;;;2.60;99.90;;;;;;6211326;23;20420;-68
2023/12/05 11:41:27;;;;;;;20.83;12.70;;;2.70;99.90;;;;;;6211063;23;20412;-67
2023/12/05 11:44:18;;;;;;;24.63;12.47;;;2.80;99.90;;;;;;6210804;23;20455;-66
2023/12/05 11:46:49;;;;;;;16.40;10.00;;;2.60;99.90;;;;;;6211411;23;20389;-67
2023/12/05 11:49:28;;;;;;;20.80;12.30;;;2.50;99.90;;;;;;6210895;23;20385;-67
2023/12/05 11:51:55;;;;;;;20.33;11.10;;;2.50;99.90;;;;;;6211179;23;20448;-66
2023/12/05 11:54:24;;;;;;;16.67;10.40;;;2.50;99.90;;;;;;6210725;23;20396;-66
2023/12/05 11:57:11;;;;;;;22.83;12.10;;;2.50;99.90;;;;;;6210126;23;20420;-66
2023/12/05 11:59:40;;;;;;;20.70;12.27;;;2.50;99.90;;;;;;6210565;23;20392;-65
2023/12/05 12:02:07;;;;;;;21.50;11.80;;;2.60;99.90;;;;;;6211530;23;20465;-67
2023/12/05 12:04:34;;;;;;;19.27;11.40;;;2.70;99.90;;;;;;6210131;23;20524;-67
2023/12/05 12:07:03;;;;;;;18.13;11.10;;;2.80;99.90;;;;;;6210538;23;20409;-65
2023/12/05 12:09:30;;;;;;;20.80;11.77;;;2.80;99.90;;;;;;6210149;23;20425;-67
2023/12/05 12:12:02;;;;;;;20.17;11.07;;;2.90;99.90;;;;;;6210535;23;20405;-66
2023/12/05 12:14:32;;;;;;;19.10;10.87;;;2.90;99.90;;;;;;6211276;23;20416;-66
2023/12/05 12:17:04;;;;;;;22.70;12.10;;;2.90;99.90;;;;;;6211245;23;20405;-67
2023/12/05 12:19:32;;;;;;;13.83;8.80;;;2.80;99.90;;;;;;6210675;23;20377;-64
2023/12/05 12:22:13;;;;;;;17.73;11.23;;;2.90;99.90;;;;;;6211445;23;20440;-64
2023/12/05 12:24:40;;;;;;;22.50;10.73;;;2.80;99.90;;;;;;6210120;23;20424;-64
2023/12/05 12:27:09;;;;;;;22.60;11.10;;;2.90;99.90;;;;;;6210453;23;20436;-65
2023/12/05 12:29:36;;;;;;;16.90;10.60;;;2.80;99.90;;;;;;6211499;23;20787;-65
2023/12/05 12:32:09;;;;;;;18.20;10.60;;;2.70;99.90;;;;;;6210947;23;20413;-65
2023/12/05 12:34:37;;;;;;;18.23;11.40;;;2.70;99.90;;;;;;6211407;23;20389;-66
2023/12/05 12:37:05;;;;;;;22.27;11.83;;;2.70;99.90;;;;;;6211926;23;20420;-64
2023/12/05 12:39:36;;;;;;;16.97;9.87;;;2.70;99.90;;;;;;6211440;23;20408;-66
2023/12/05 12:42:05;;;;;;;27.97;12.73;;;2.70;99.90;;;;;;6211922;23;20374;-61
2023/12/05 12:44:34;;;;;;;21.40;9.30;;;2.70;99.90;;;;;;6211832;23;20432;-64
2023/12/05 12:47:04;;;;;;;20.80;10.40;;;2.80;99.90;;;;;;6210253;23;20444;-64
2023/12/05 12:49:31;;;;;;;18.27;11.27;;;2.70;99.90;;;;;;6211532;23;20397;-64
2023/12/05 12:51:58;;;;;;;25.90;11.60;;;2.80;99.90;;;;;;6211554;23;20404;-64
2023/12/05 12:54:25;;;;;;;18.83;10.63;;;2.80;99.90;;;;;;6211213;23;20407;-63
2023/12/05 12:56:53;;;;;;;15.20;10.17;;;2.80;99.90;;;;;;6211407;23;20433;-64
2023/12/05 12:59:20;;;;;;;19.57;11.00;;;2.80;99.90;;;;;;6212729;23;20420;-65
2023/12/05 13:01:52;;;;;;;24.80;11.43;;;2.80;99.90;;;;;;6212382;23;20443;-65
2023/12/05 13:04:18;;;;;;;16.87;10.40;;;2.80;99.90;;;;;;6211838;23;20460;-64
2023/12/05 13:06:46;;;;;;;19.87;9.73;;;2.90;99.90;;;;;;6212570;23;20421;-65
2023/12/05 13:09:23;;;;;;;21.10;11.87;;;2.80;99.90;;;;;;6212170;23;20459;-64
2023/12/05 13:11:50;;;;;;;26.93;13.60;;;2.70;99.90;;;;;;6212270;23;20396;-65
2023/12/05 13:14:19;;;;;;;16.90;10.27;;;2.80;99.90;;;;;;6212298;23;20420;-65
2023/12/05 13:16:49;;;;;;;22.97;11.03;;;2.70;99.90;;;;;;6212395;23;20408;-64
2023/12/05 13:19:22;;;;;;;26.03;12.43;;;2.70;99.90;;;;;;6212231;23;20389;-65
2023/12/05 13:21:49;;;;;;;23.93;13.30;;;2.60;99.90;;;;;;6212108;23;20433;-64
2023/12/05 13:24:16;;;;;;;33.30;13.70;;;2.60;99.90;;;;;;6211846;23;20447;-64
2023/12/05 13:26:43;;;;;;;26.43;14.27;;;2.60;99.90;;;;;;6211894;23;20945;-63
2023/12/05 13:29:10;;;;;;;23.50;12.57;;;2.60;99.90;;;;;;6212849;23;20417;-64
2023/12/05 13:31:39;;;;;;;23.60;12.40;;;2.50;99.90;;;;;;6212385;23;21180;-65
2023/12/05 13:34:07;;;;;;;24.43;11.50;;;2.40;99.90;;;;;;6212388;23;20382;-66
2023/12/05 13:36:34;;;;;;;33.50;13.23;;;2.40;99.90;;;;;;6212202;23;20416;-66
2023/12/05 13:39:02;;;;;;;22.87;12.90;;;2.30;99.90;;;;;;6212474;23;20407;-64
2023/12/05 13:41:31;;;;;;;28.37;14.87;;;2.40;99.90;;;;;;6212211;23;20415;-63
2023/12/05 13:44:00;;;;;;;17.80;11.90;;;1.50;99.90;;;;;;6212234;23;20432;-64
2023/12/05 13:46:28;;;;;;;22.13;11.83;;;2.30;99.90;;;;;;6211909;23;20417;-66
2023/12/05 13:49:00;;;;;;;24.27;11.73;;;2.30;99.90;;;;;;6213023;23;20408;-65
2023/12/05 13:51:29;;;;;;;22.00;12.17;;;2.30;99.90;;;;;;6213271;23;20389;-67
2023/12/05 13:54:01;;;;;;;30.53;14.43;;;2.20;99.90;;;;;;6212958;23;20428;-65
2023/12/05 13:56:28;;;;;;;23.83;14.10;;;2.20;99.90;;;;;;6213627;23;20370;-65
2023/12/05 13:58:58;;;;;;;18.20;11.00;;;2.20;99.90;;;;;;6213218;23;20401;-64
2023/12/05 14:01:25;;;;;;;24.70;13.97;;;2.20;99.90;;;;;;6212671;23;20416;-65
2023/12/05 14:03:52;;;;;;;24.80;14.60;;;2.20;99.90;;;;;;6212475;23;20412;-67
2023/12/05 14:06:19;;;;;;;25.03;13.50;;;2.20;99.90;;;;;;6211987;23;20453;-66
2023/12/05 14:08:49;;;;;;;27.73;13.20;;;2.20;99.90;;;;;;6212047;23;20401;-65
2023/12/05 14:11:16;;;;;;;19.67;9.90;;;2.20;99.90;;;;;;6211876;23;20419;-65
2023/12/05 14:13:43;;;;;;;23.47;12.77;;;2.20;99.90;;;;;;6212512;23;20382;-66
2023/12/05 14:16:11;;;;;;;27.17;12.67;;;2.20;99.90;;;;;;6211291;23;20396;-64
2023/12/05 14:18:40;;;;;;;24.03;12.93;;;2.20;99.90;;;;;;6211639;23;20417;-64
2023/12/05 14:21:07;;;;;;;24.37;13.60;;;2.20;99.90;;;;;;6211726;23;20419;-64
2023/12/05 14:23:34;;;;;;;28.03;13.77;;;2.20;99.90;;;;;;6211907;23;20429;-64
2023/12/05 14:26:08;;;;;;;22.70;13.50;;;2.20;99.90;;;;;;6211704;23;20441;-64
2023/12/05 14:28:35;;;;;;;24.77;13.50;;;2.40;99.90;;;;;;6212780;23;20416;-66
2023/12/05 14:31:02;;;;;;;24.37;13.30;;;2.10;99.90;;;;;;6212842;23;20400;-65
2023/12/05 14:33:29;;;;;;;26.60;13.50;;;2.10;99.90;;;;;;6212800;23;20405;-65
2023/12/05 14:35:55;;;;;;;27.23;12.77;;;2.10;99.90;;;;;;6213019;23;20409;-65
2023/12/05 14:38:23;;;;;;;25.87;14.43;;;2.00;99.90;;;;;;6212659;23;20404;-66
2023/12/05 14:40:53;;;;;;;23.50;15.63;;;1.90;99.90;;;;;;6212447;23;20436;-64
2023/12/05 14:43:21;;;;;;;24.30;15.50;;;1.90;99.90;;;;;;6213036;23;20389;-63
2023/12/05 14:45:48;;;;;;;28.53;14.73;;;1.90;99.90;;;;;;6211912;23;20453;-66
2023/12/05 14:48:16;;;;;;;27.77;14.17;;;1.90;99.90;;;;;;6212684;23;20392;-65
2023/12/05 14:50:43;;;;;;;30.93;16.50;;;1.90;99.90;;;;;;6212645;23;20417;-65
2023/12/05 14:53:12;;;;;;;34.27;14.97;;;1.90;99.90;;;;;;6212071;23;20378;-65
2023/12/05 14:55:39;;;;;;;25.20;13.23;;;1.90;99.90;;;;;;6212314;23;20792;-65
2023/12/05 14:58:08;;;;;;;21.03;13.37;;;2.70;99.90;;;;;;6211947;23;20423;-65
2023/12/05 15:00:36;;;;;;;28.30;15.30;;;1.90;99.90;;;;;;6212689;23;20429;-65
2023/12/05 15:03:04;;;;;;;31.83;14.03;;;1.90;99.90;;;;;;6212723;23;20425;-64
2023/12/05 15:05:31;;;;;;;31.60;15.00;;;1.90;99.90;;;;;;6213277;23;20455;-59
2023/12/05 15:08:01;;;;;;;34.90;15.33;;;1.90;99.90;;;;;;6213116;23;20496;-63
2023/12/05 15:10:28;;;;;;;21.63;13.33;;;1.90;99.90;;;;;;6213856;23;20424;-59
2023/12/05 15:12:55;;;;;;;22.53;14.03;;;1.40;99.90;;;;;;6213300;23;20400;-64
2023/12/05 15:15:24;;;;;;;32.20;15.67;;;1.80;99.90;;;;;;6213634;23;20420;-63
2023/12/05 15:18:10;;;;;;;28.10;14.77;;;1.80;99.90;;;;;;6213601;23;20405;-62
2023/12/05 15:20:37;;;;;;;31.60;17.37;;;1.80;99.90;;;;;;6210138;23;20468;-63
2023/12/05 15:23:05;;;;;;;26.20;15.53;;;1.80;99.90;;;;;;6212955;23;20389;-63
2023/12/05 15:25:38;;;;;;;30.53;16.73;;;1.90;99.90;;;;;;6212108;23;20479;-64
2023/12/05 15:28:11;;;;;;;29.33;14.33;;;1.90;99.90;;;;;;6211875;23;20405;-62
2023/12/05 15:30:39;;;;;;;30.03;14.33;;;1.90;99.90;;;;;;6211483;23;20859;-66
2023/12/05 15:33:05;;;;;;;26.93;15.43;;;1.80;99.90;;;;;;6211393;23;20428;-64
2023/12/05 15:35:35;;;;;;;31.10;17.60;;;1.80;99.90;;;;;;6211625;23;20393;-64
2023/12/05 15:38:05;;;;;;;24.77;13.47;;;1.80;99.90;;;;;;6211382;23;20393;-63